Time;durP1;ratioP1;P1;durP2;ratioP2;P2;SDS_P1;SDS_P2;PMS_P1;PMS_P2;Temp;Humidity;BMP_temperature;BMP_pressure;BME280_temperature;BME280_humidity;BME280_pressure;Samples;Min_cycle;Max_cycle;Signal;HPM_P1;HPM_P2
2022/08/13 00:01:56;;;;;;;;;24.33;22.00;;;;;24.45;65.23;100098.16;5029287;28;45655;-78
2022/08/13 00:04:24;;;;;;;;;19.67;19.67;;;;;24.39;65.42;100078.78;5030907;28;45307;-79
2022/08/13 00:07:08;;;;;;;;;25.67;22.33;;;;;24.51;65.43;100112.22;5027789;28;45434;-79
2022/08/13 00:09:40;;;;;;;;;21.33;20.67;;;;;23.96;65.48;100021.50;5031368;28;45591;-78
2022/08/13 00:15:09;;;;;;;;;20.00;18.33;;;;;24.42;66.11;100101.81;5031870;28;45448;-78
2022/08/13 00:17:37;;;;;;;;;21.67;21.00;;;;;24.41;66.62;100098.28;5030337;28;45570;-78
2022/08/13 00:20:05;;;;;;;;;23.33;22.33;;;;;24.35;66.32;100093.16;5024612;28;45782;-78
2022/08/13 00:22:30;;;;;;;;;22.00;19.67;;;;;21.35;66.10;99582.41;5026963;28;46282;-78
2022/08/13 00:24:58;;;;;;;;;24.00;21.67;;;;;24.28;66.98;100096.94;5020100;28;45552;-78
2022/08/13 00:27:23;;;;;;;;;23.00;22.33;;;;;24.26;66.70;100095.25;5020532;28;45217;-79
2022/08/13 00:29:54;;;;;;;;;23.33;21.67;;;;;24.30;66.93;100088.88;5031154;28;45302;-78
2022/08/13 00:32:21;;;;;;;;;23.00;22.00;;;;;24.31;66.47;100086.19;5034498;28;45400;-78
2022/08/13 00:34:49;;;;;;;;;26.25;23.50;;;;;24.26;68.12;100085.44;5023478;28;45544;-78
2022/08/13 00:37:15;;;;;;;;;25.67;25.33;;;;;24.24;68.54;100087.28;5030411;28;45354;-78
2022/08/13 00:39:40;;;;;;;;;20.00;18.00;;;;;24.19;68.21;100081.22;5031628;28;45433;-78
2022/08/13 00:42:06;;;;;;;;;24.00;23.33;;;;;23.96;66.73;100055.31;5021254;28;45477;-78
2022/08/13 00:44:31;;;;;;;;;21.00;19.67;;;;;23.98;67.85;100081.03;5025955;28;45464;-78
2022/08/13 00:49:42;;;;;;;;;22.00;19.00;;;;;23.72;68.38;100083.63;5023426;28;45460;-78
2022/08/13 00:52:09;;;;;;;;;23.00;22.00;;;;;23.63;68.62;100077.69;5023190;28;46093;-78
2022/08/13 00:54:34;;;;;;;;;24.67;21.67;;;;;23.59;69.42;100075.13;5028563;28;45418;-78
2022/08/13 00:57:06;;;;;;;;;25.33;21.33;;;;;23.58;69.38;100071.59;5024943;28;45431;-79
2022/08/13 00:59:32;;;;;;;;;25.00;23.00;;;;;23.59;69.11;100060.00;5026749;28;45529;-77
2022/08/13 01:01:58;;;;;;;;;23.33;21.67;;;;;23.70;69.13;100082.81;5025202;28;46176;-78
2022/08/13 01:04:25;;;;;;;;;26.00;23.67;;;;;23.37;69.61;100013.63;5026040;28;46423;-78
2022/08/13 01:06:51;;;;;;;;;22.25;20.75;;;;;23.56;69.60;100041.44;5027573;28;45457;-78
2022/08/13 01:09:16;;;;;;;;;26.67;24.67;;;;;23.74;69.45;100068.47;5020508;28;45496;-78
2022/08/13 01:11:44;;;;;;;;;22.33;20.33;;;;;23.82;69.08;100074.44;5028358;28;46300;-78
2022/08/13 01:14:10;;;;;;;;;24.33;22.33;;;;;23.60;69.54;100032.44;5031261;28;45418;-78
2022/08/13 01:16:37;;;;;;;;;24.75;23.75;;;;;23.84;68.99;100072.59;5024136;28;45382;-77
2022/08/13 01:19:08;;;;;;;;;20.33;18.33;;;;;23.85;68.66;100065.47;5029371;28;46154;-77
2022/08/13 01:21:42;;;;;;;;;27.33;23.00;;;;;23.86;69.34;100062.75;5026672;28;46167;-78
2022/08/13 01:24:12;;;;;;;;;26.00;22.67;;;;;23.87;68.85;100058.28;5025697;28;45476;-78
2022/08/13 01:26:39;;;;;;;;;23.75;22.25;;;;;23.82;68.22;100042.44;5023268;28;45365;-78
2022/08/13 01:29:06;;;;;;;;;22.67;22.00;;;;;23.88;68.67;100055.56;5029298;28;45496;-77
2022/08/13 01:31:34;;;;;;;;;22.00;20.33;;;;;23.74;68.23;100042.66;5019080;28;46105;-78
2022/08/13 01:34:00;;;;;;;;;27.67;21.33;;;;;23.87;68.70;100053.81;5031281;28;45449;-78
2022/08/13 01:36:27;;;;;;;;;22.33;21.00;;;;;23.95;68.92;100056.22;5029662;28;45560;-78
2022/08/13 01:38:53;;;;;;;;;23.33;22.33;;;;;23.95;67.78;100056.22;5031547;28;45402;-77
2022/08/13 01:41:21;;;;;;;;;20.00;20.00;;;;;23.88;68.21;100046.72;5021418;28;45497;-78
2022/08/13 01:43:47;;;;;;;;;22.33;20.00;;;;;23.70;68.08;100038.34;5019874;28;45574;-78
2022/08/13 01:46:12;;;;;;;;;22.33;21.00;;;;;23.33;67.84;99982.66;5018837;28;45406;-78
2022/08/13 01:51:29;;;;;;;;;21.00;20.33;;;;;23.47;67.99;100027.53;5030508;28;45795;-78
2022/08/13 01:54:00;;;;;;;;;19.25;18.25;;;;;23.43;68.49;100022.28;5054130;28;45363;-76
2022/08/13 01:56:28;;;;;;;;;20.67;19.33;;;;;23.63;68.06;100053.69;5032504;28;45624;-77
2022/08/13 01:58:56;;;;;;;;;25.33;20.33;;;;;23.60;69.04;100055.56;5024979;28;45280;-78
2022/08/13 02:01:25;;;;;;;;;26.00;22.33;;;;;23.44;68.44;100028.50;5025267;28;45512;-78
2022/08/13 02:03:53;;;;;;;;;26.33;23.00;;;;;23.37;68.36;100024.28;5024265;28;45426;-78
2022/08/13 02:06:24;;;;;;;;;23.00;21.33;;;;;23.39;69.35;100025.09;5030003;28;45272;-78
2022/08/13 02:08:52;;;;;;;;;23.67;23.00;;;;;23.45;68.50;100045.38;5024090;28;45256;-77
2022/08/13 02:11:19;;;;;;;;;22.33;19.33;;;;;23.36;69.31;100046.53;5036320;28;45316;-78
2022/08/13 02:13:48;;;;;;;;;20.67;19.67;;;;;23.37;69.15;100040.28;5032859;28;45332;-78
2022/08/13 02:16:13;;;;;;;;;21.33;20.33;;;;;22.97;69.15;99964.19;5016314;28;45379;-78
2022/08/13 02:18:39;;;;;;;;;21.33;20.67;;;;;23.37;69.51;100034.94;5032271;28;45418;-78
2022/08/13 02:21:05;;;;;;;;;24.67;23.00;;;;;22.83;68.66;99941.50;5016362;28;46049;-77
2022/08/13 02:23:33;;;;;;;;;25.00;20.33;;;;;23.08;68.98;99988.75;5016657;28;45286;-79
2022/08/13 02:26:05;;;;;;;;;22.67;20.67;;;;;22.96;69.79;99975.75;5016495;28;45533;-78
2022/08/13 02:28:39;;;;;;;;;24.00;23.33;;;;;23.29;69.41;100024.50;5016639;28;45465;-77
2022/08/13 02:31:06;;;;;;;;;20.00;19.67;;;;;22.95;69.64;99990.00;5031927;28;45994;-78
2022/08/13 02:33:35;;;;;;;;;21.33;19.67;;;;;23.09;69.36;100018.94;5030762;28;45524;-78
2022/08/13 02:36:07;;;;;;;;;25.33;21.67;;;;;23.20;70.32;100028.34;5035600;28;45240;-78
2022/08/13 02:38:32;;;;;;;;;25.33;21.00;;;;;23.16;69.61;100029.34;5036012;28;45421;-78
2022/08/13 02:43:46;;;;;;;;;28.67;25.00;;;;;22.84;71.26;100011.66;5017551;28;45406;-78
2022/08/13 02:46:11;;;;;;;;;26.00;23.67;;;;;22.96;71.08;100029.03;5020217;28;45413;-78
2022/08/13 02:48:37;;;;;;;;;24.33;23.33;;;;;23.06;71.32;100025.22;5020390;28;45433;-78
2022/08/13 02:51:03;;;;;;;;;23.33;22.00;;;;;23.15;71.69;100027.59;5020212;28;45770;-78
2022/08/13 02:53:31;;;;;;;;;23.33;23.00;;;;;22.92;71.48;99990.09;5018593;28;45526;-78
2022/08/13 02:55:57;;;;;;;;;23.67;22.33;;;;;22.82;71.20;99979.72;5019789;28;45488;-77
2022/08/13 02:58:22;;;;;;;;;27.33;25.67;;;;;23.09;71.29;100010.94;5027475;28;45543;-78
2022/08/13 03:00:49;;;;;;;;;26.00;24.25;;;;;23.26;70.92;100032.63;5026939;28;45489;-78
2022/08/13 03:03:18;;;;;;;;;25.33;24.00;;;;;23.31;70.62;100024.47;5019587;28;45530;-78
2022/08/13 03:05:44;;;;;;;;;23.00;21.33;;;;;23.25;69.60;100008.69;5019355;28;45457;-78
2022/08/13 03:08:11;;;;;;;;;26.33;23.00;;;;;23.31;69.88;100014.69;5030664;28;45458;-77
2022/08/13 03:10:36;;;;;;;;;26.00;25.00;;;;;23.22;70.28;100023.84;5039697;28;46701;-79
2022/08/13 03:13:16;;;;;;;;;21.67;21.33;;;;;23.12;70.64;100005.50;5032091;28;45485;-78
2022/08/13 03:15:44;;;;;;;;;30.00;23.67;;;;;23.25;69.86;100006.00;5019892;28;45509;-77
2022/08/13 03:18:11;;;;;;;;;20.33;20.00;;;;;22.93;69.67;99946.56;5019410;28;45369;-78
2022/08/13 03:20:37;;;;;;;;;23.25;21.00;;;;;23.35;69.63;100007.47;5019363;28;46153;-78
2022/08/13 03:23:03;;;;;;;;;24.00;20.33;;;;;23.38;69.34;100010.06;5025753;28;45548;-78
2022/08/13 03:25:30;;;;;;;;;22.00;20.67;;;;;23.38;68.96;100010.91;5039313;28;45454;-78
2022/08/13 03:27:58;;;;;;;;;23.33;22.33;;;;;23.39;69.16;100004.66;5039392;28;45502;-78
2022/08/13 03:30:26;;;;;;;;;20.50;20.25;;;;;23.41;68.57;99996.59;5036395;28;46274;-78
2022/08/13 03:32:53;;;;;;;;;24.67;21.67;;;;;23.42;68.44;99996.56;5024290;28;45739;-78
2022/08/13 03:35:20;;;;;;;;;24.67;22.00;;;;;23.32;68.28;99970.28;5033758;28;45453;-78
2022/08/13 03:37:49;;;;;;;;;24.00;22.00;;;;;23.11;68.45;99939.81;5023984;28;45433;-78
2022/08/13 03:40:16;;;;;;;;;25.33;23.33;;;;;23.39;68.05;99978.00;5036206;28;45563;-78
2022/08/13 03:42:43;;;;;;;;;23.25;20.75;;;;;23.37;67.89;99971.84;5038188;28;45620;-77
2022/08/13 03:45:10;;;;;;;;;23.00;21.67;;;;;23.38;67.67;99956.75;5027755;28;45730;-79
2022/08/13 03:47:39;;;;;;;;;22.00;19.33;;;;;23.40;67.99;99962.91;5033548;28;45442;-78
2022/08/13 03:50:06;;;;;;;;;23.00;21.67;;;;;23.51;67.72;99981.19;5021261;28;46050;-78
2022/08/13 03:52:33;;;;;;;;;22.67;20.67;;;;;23.38;68.14;99976.25;5030365;28;45407;-78
2022/08/13 03:55:04;;;;;;;;;23.00;21.33;;;;;23.48;67.95;99984.84;5028677;28;45512;-78
2022/08/13 03:57:30;;;;;;;;;24.00;22.00;;;;;23.26;68.00;99949.13;5022096;28;45447;-77
2022/08/13 03:59:57;;;;;;;;;21.00;20.00;;;;;23.48;68.07;99960.84;5017753;28;45458;-78
2022/08/13 04:02:23;;;;;;;;;22.67;22.33;;;;;23.63;68.82;99979.03;5025779;28;45608;-78
2022/08/13 04:04:50;;;;;;;;;21.67;20.67;;;;;23.66;68.25;99978.03;5035401;28;45464;-78
2022/08/13 04:07:22;;;;;;;;;25.00;23.33;;;;;23.48;68.46;99944.00;5036457;28;45355;-77
2022/08/13 04:09:48;;;;;;;;;23.67;23.00;;;;;23.61;68.83;99969.31;5022988;28;45600;-78
2022/08/13 04:12:14;;;;;;;;;20.33;19.33;;;;;23.52;69.15;99951.84;5037223;28;45832;-77
2022/08/13 04:14:40;;;;;;;;;25.67;22.33;;;;;23.00;68.90;99868.22;5025093;28;45482;-78
2022/08/13 04:17:10;;;;;;;;;25.33;23.33;;;;;23.57;68.43;99960.53;5032802;28;45366;-78
2022/08/13 04:19:37;;;;;;;;;20.67;19.33;;;;;23.63;68.85;99965.69;5023044;28;45643;-78
2022/08/13 04:22:04;;;;;;;;;24.33;22.33;;;;;23.65;68.26;99962.09;5026288;28;45345;-78
2022/08/13 04:24:30;;;;;;;;;23.00;21.33;;;;;23.58;68.19;99950.75;5018034;28;45391;-78
2022/08/13 04:26:58;;;;;;;;;21.00;21.00;;;;;23.68;67.98;99964.66;5033445;28;45394;-78
2022/08/13 04:29:25;;;;;;;;;23.33;21.67;;;;;23.66;68.06;99959.38;5023586;28;45545;-78
2022/08/13 04:31:51;;;;;;;;;21.33;20.67;;;;;23.63;68.92;99955.03;5027178;28;45461;-78
2022/08/13 04:34:23;;;;;;;;;22.67;20.67;;;;;23.04;68.66;99864.56;5031488;28;45461;-78
2022/08/13 04:36:48;;;;;;;;;22.33;21.67;;;;;23.53;68.54;99942.03;5018403;28;45798;-78
2022/08/13 04:39:14;;;;;;;;;22.33;20.33;;;;;23.60;68.49;99955.09;5023739;28;45431;-78
2022/08/13 04:41:40;;;;;;;;;22.00;21.00;;;;;23.58;68.65;99954.28;5036664;28;45481;-78
2022/08/13 04:44:05;;;;;;;;;25.00;24.00;;;;;23.33;68.98;99924.88;5037353;28;45358;-81
2022/08/13 04:46:31;;;;;;;;;26.67;22.33;;;;;23.53;69.68;99953.56;5021283;28;45889;-78
2022/08/13 04:48:56;;;;;;;;;28.67;26.00;;;;;23.32;69.15;99919.63;5030861;28;46098;-78
2022/08/13 04:51:25;;;;;;;;;23.33;21.67;;;;;23.52;69.31;99949.16;5027783;28;45185;-78
2022/08/13 04:53:52;;;;;;;;;26.33;24.33;;;;;23.52;69.13;99945.63;5030677;28;45651;-78
2022/08/13 04:56:18;;;;;;;;;26.00;25.00;;;;;23.50;68.66;99948.34;5030317;28;45462;-77
2022/08/13 04:58:45;;;;;;;;;24.00;22.33;;;;;23.21;68.91;99886.19;5035462;28;45280;-78
2022/08/13 05:01:11;;;;;;;;;23.67;22.00;;;;;23.54;68.67;99944.66;5017740;28;45222;-78
2022/08/13 05:03:38;;;;;;;;;27.33;26.00;;;;;23.10;68.61;99863.47;5058115;28;45497;-79
2022/08/13 05:06:05;;;;;;;;;22.67;21.00;;;;;23.52;69.01;99946.50;5024593;28;45304;-79
2022/08/13 05:08:32;;;;;;;;;22.33;21.00;;;;;22.71;68.97;99808.75;5016850;28;46352;-78
2022/08/13 05:10:59;;;;;;;;;25.67;22.00;;;;;23.42;68.99;99934.41;5031635;28;45656;-78
2022/08/13 05:13:33;;;;;;;;;23.00;20.00;;;;;23.41;68.93;99932.63;5016607;28;45509;-78
2022/08/13 05:16:01;;;;;;;;;21.00;20.33;;;;;23.35;68.39;99923.03;5030951;28;45533;-79
2022/08/13 05:18:29;;;;;;;;;24.00;22.33;;;;;23.30;69.13;99925.00;5017606;28;45730;-78
2022/08/13 05:21:00;;;;;;;;;23.67;21.67;;;;;23.40;68.52;99944.25;5023308;28;45478;-78
2022/08/13 05:23:26;;;;;;;;;21.00;19.33;;;;;23.14;68.53;99891.75;5036619;28;45335;-78
2022/08/13 05:25:52;;;;;;;;;21.33;20.00;;;;;23.38;68.29;99922.09;5037036;28;45483;-78
2022/08/13 05:28:18;;;;;;;;;25.25;22.50;;;;;22.87;68.58;99835.75;5035627;28;46225;-80
2022/08/13 05:30:47;;;;;;;;;20.67;19.67;;;;;23.44;68.18;99929.88;5029745;28;45437;-78
2022/08/13 05:33:16;;;;;;;;;22.33;19.33;;;;;23.45;68.33;99931.63;5028449;28;45317;-78
2022/08/13 05:35:51;;;;;;;;;26.00;23.00;;;;;23.28;68.92;99901.97;5051586;28;45417;-77
2022/08/13 05:38:22;;;;;;;;;22.67;21.67;;;;;22.54;68.88;99774.69;5016914;28;46017;-78
2022/08/13 05:41:01;;;;;;;;;22.00;20.67;;;;;23.17;68.94;99884.53;5016704;28;45603;-78
2022/08/13 05:43:29;;;;;;;;;23.67;22.33;;;;;23.54;68.82;99926.00;5016903;28;45436;-78
2022/08/13 05:45:58;;;;;;;;;20.33;20.33;;;;;23.12;68.56;99830.56;5032073;28;45447;-78
2022/08/13 05:48:28;;;;;;;;;24.67;23.33;;;;;23.72;67.92;99923.63;5055884;28;45570;-78
2022/08/13 05:50:58;;;;;;;;;27.00;23.67;;;;;23.81;68.28;99921.56;5055953;28;45367;-78
2022/08/13 05:53:24;;;;;;;;;26.00;22.67;;;;;23.94;67.73;99919.31;5033711;28;45327;-78
2022/08/13 05:55:50;;;;;;;;;24.00;22.33;;;;;24.02;67.32;99917.25;5016665;28;45385;-78
2022/08/13 05:58:16;;;;;;;;;21.00;21.00;;;;;23.92;67.87;99890.97;5016313;28;45766;-78
2022/08/13 06:03:29;;;;;;;;;27.00;24.33;;;;;24.21;67.32;99919.25;5031770;28;45362;-79
2022/08/13 06:05:57;;;;;;;;;25.75;23.25;;;;;24.09;67.06;99867.19;5032143;28;45477;-79
2022/08/13 06:08:28;;;;;;;;;33.50;30.00;;;;;24.19;66.08;99857.94;5023404;28;45531;-79
2022/08/13 06:10:59;;;;;;;;;23.50;21.25;;;;;24.74;65.14;99912.88;5036008;28;45224;-79
2022/08/13 06:13:26;;;;;;;;;24.67;23.33;;;;;24.55;64.68;99853.94;5035362;28;45442;-77
2022/08/13 06:15:58;;;;;;;;;24.33;20.67;;;;;25.10;64.14;99915.88;5016345;28;45303;-79
2022/08/13 06:18:49;;;;;;;;;27.00;24.25;;;;;25.02;63.59;99896.63;5026121;28;45606;-79
2022/08/13 06:21:17;;;;;;;;;24.67;22.67;;;;;25.17;63.67;99906.69;5026049;28;45480;-78
2022/08/13 06:23:45;;;;;;;;;24.67;24.67;;;;;25.30;63.08;99890.19;5022785;28;45459;-79
2022/08/13 06:26:18;;;;;;;;;22.67;21.67;;;;;25.59;62.48;99908.56;5022780;28;45726;-77
2022/08/13 06:28:45;;;;;;;;;21.33;20.33;;;;;25.84;61.24;99887.91;5022449;28;46315;-79
2022/08/13 06:31:16;;;;;;;;;26.33;22.67;;;;;26.02;59.79;99872.88;5031785;28;45438;-79
2022/08/13 06:33:43;;;;;;;;;22.33;20.67;;;;;26.84;58.16;99904.84;5041533;28;45648;-79
2022/08/13 06:36:15;;;;;;;;;18.33;18.33;;;;;27.84;56.12;99910.66;5055188;28;45513;-79
2022/08/13 06:38:45;;;;;;;;;22.00;21.00;;;;;28.44;54.30;99916.44;5022266;28;46135;-79
2022/08/13 06:41:12;;;;;;;;;22.33;21.33;;;;;28.55;53.21;99860.34;5022480;28;45611;-79
2022/08/13 06:43:40;;;;;;;;;22.33;21.00;;;;;29.26;51.97;99912.81;5037932;28;45531;-79
2022/08/13 06:46:07;;;;;;;;;23.00;22.33;;;;;29.89;49.95;99910.97;5043312;28;45580;-79
2022/08/13 06:48:34;;;;;;;;;21.00;20.67;;;;;30.56;49.49;99905.97;5042697;28;45309;-79
2022/08/13 06:51:01;;;;;;;;;19.67;18.00;;;;;31.20;47.10;99900.09;5042924;28;45440;-79
2022/08/13 06:53:27;;;;;;;;;22.33;21.00;;;;;31.70;45.79;99902.09;5042937;28;45365;-80
2022/08/13 06:55:53;;;;;;;;;17.00;17.00;;;;;31.61;46.17;99902.69;5043090;28;45277;-80
2022/08/13 06:58:25;;;;;;;;;20.00;17.33;;;;;30.83;46.31;99860.16;5043189;28;46178;-80
2022/08/13 07:00:53;;;;;;;;;21.00;20.33;;;;;30.81;48.06;99899.84;5043264;28;45404;-80
2022/08/13 07:03:22;;;;;;;;;21.33;19.67;;;;;30.62;47.17;99875.91;5043029;28;45860;-80
2022/08/13 07:05:48;;;;;;;;;19.33;19.33;;;;;29.81;47.63;99809.13;5043044;28;45444;-80
2022/08/13 07:08:14;;;;;;;;;24.33;23.00;;;;;30.18;47.72;99914.56;5042909;28;45404;-79
2022/08/13 07:10:50;;;;;;;;;21.33;20.00;;;;;29.92;48.43;99916.16;5042964;28;45204;-80
2022/08/13 07:13:18;;;;;;;;;20.00;20.00;;;;;30.23;48.85;99920.53;5040686;28;45513;-80
2022/08/13 07:15:51;;;;;;;;;22.00;20.67;;;;;30.42;47.49;99919.41;5027576;28;45558;-80
2022/08/13 07:18:17;;;;;;;;;19.00;19.00;;;;;30.47;48.03;99939.72;5021488;28;46259;-80
2022/08/13 07:20:44;;;;;;;;;19.67;18.33;;;;;30.48;48.44;99945.97;5029341;28;45531;-80
2022/08/13 07:23:11;;;;;;;;;18.00;16.67;;;;;30.61;47.69;99941.56;5030238;28;45556;-80
2022/08/13 07:25:39;;;;;;;;;12.33;11.33;;;;;30.62;47.61;99940.59;5022278;28;45498;-79
2022/08/13 07:28:05;;;;;;;;;13.00;12.00;;;;;31.07;46.46;99949.41;5022101;28;45482;-80
2022/08/13 07:30:31;;;;;;;;;15.67;14.33;;;;;31.58;45.75;99945.25;5025482;28;45312;-80
2022/08/13 07:32:57;;;;;;;;;16.00;14.00;;;;;31.91;44.42;99940.28;5026805;28;45452;-79
2022/08/13 07:35:23;;;;;;;;;15.33;15.00;;;;;32.49;43.91;99935.34;5034153;28;45520;-80
2022/08/13 07:37:52;;;;;;;;;18.00;16.67;;;;;33.21;43.37;99909.50;5022096;28;46146;-80
2022/08/13 07:40:19;;;;;;;;;7.67;6.67;;;;;33.98;40.16;99934.34;5030251;28;45807;-80
2022/08/13 07:42:48;;;;;;;;;14.33;14.33;;;;;34.65;39.14;99935.41;5018918;28;45438;-80
2022/08/13 07:45:27;;;;;;;;;11.67;11.67;;;;;35.36;37.90;99924.25;5022094;28;45600;-80
2022/08/13 07:47:54;;;;;;;;;13.67;13.00;;;;;35.85;36.39;99838.56;5023903;28;46156;-80
2022/08/13 07:50:20;;;;;;;;;13.67;12.67;;;;;36.39;35.48;99942.63;5027924;28;45423;-81
2022/08/13 07:52:52;;;;;;;;;12.33;12.33;;;;;35.39;37.04;99937.56;5031952;28;45469;-81
2022/08/13 07:55:20;;;;;;;;;13.33;13.33;;;;;34.18;38.22;99880.41;5021274;28;45422;-81
2022/08/13 07:57:46;;;;;;;;;13.00;12.00;;;;;33.99;39.38;99924.34;5030499;28;45548;-81
2022/08/13 08:00:21;;;;;;;;;14.00;13.00;;;;;34.53;38.96;99901.16;5018213;28;45378;-81
2022/08/13 08:02:54;;;;;;;;;15.00;14.67;;;;;34.89;38.42;99916.31;5018277;28;45422;-80
2022/08/13 08:05:24;;;;;;;;;15.33;14.67;;;;;34.75;37.33;99903.88;5065249;27;45639;-81
2022/08/13 08:07:53;;;;;;;;;14.67;13.33;;;;;35.42;37.39;99907.44;5026761;28;45567;-78
2022/08/13 08:10:20;;;;;;;;;15.00;14.33;;;;;35.91;36.31;99858.91;5023533;28;45512;-83
2022/08/13 08:12:46;;;;;;;;;13.33;13.00;;;;;36.85;34.12;99883.28;5031360;28;46989;-82
2022/08/13 08:15:12;;;;;;;;;13.67;12.67;;;;;37.48;33.38;99910.19;5025020;28;45488;-82
2022/08/13 08:17:40;;;;;;;;;14.00;13.33;;;;;38.15;31.93;99897.56;5034129;28;45421;-81
2022/08/13 08:20:06;;;;;;;;;13.00;13.00;;;;;38.18;32.67;99916.34;5034716;28;45695;-82
2022/08/13 08:22:33;;;;;;;;;12.67;12.33;;;;;38.37;32.72;99866.31;5034922;28;45821;-82
2022/08/13 08:24:59;;;;;;;;;13.00;13.00;;;;;39.45;30.79;99893.91;5036276;28;45501;-81
2022/08/13 08:27:25;;;;;;;;;15.33;14.67;;;;;39.05;30.62;99900.63;5035360;28;46133;-81
2022/08/13 08:29:52;;;;;;;;;13.00;13.00;;;;;39.38;30.74;99867.16;5035328;28;45450;-84
2022/08/13 08:32:19;;;;;;;;;12.33;12.00;;;;;40.05;30.86;99915.97;5052822;28;45394;-83
2022/08/13 08:34:47;;;;;;;;;10.67;10.00;;;;;40.21;29.25;99906.13;5034187;28;45563;-86
2022/08/13 08:42:53;;;;;;;;;13.00;12.67;;;;;41.50;27.55;99890.34;5037969;28;45496;-87
2022/08/13 08:45:20;;;;;;;;;11.00;10.67;;;;;41.60;27.20;99908.53;5041572;28;45493;-86
2022/08/13 08:47:48;;;;;;;;;12.33;11.00;;;;;41.70;27.43;99901.03;5039229;28;46272;-88
2022/08/13 08:50:17;;;;;;;;;12.67;12.67;;;;;41.38;27.20;99901.84;5032587;28;45349;-87
2022/08/13 08:55:35;;;;;;;;;12.67;12.67;;;;;40.71;29.22;99902.66;5022918;28;45415;-87
2022/08/13 08:58:07;;;;;;;;;11.33;10.33;;;;;41.65;27.36;99898.81;5022594;28;46629;-85
2022/08/13 09:00:39;;;;;;;;;16.00;14.00;;;;;42.25;27.21;99905.78;5021014;28;45412;-85
2022/08/13 09:03:06;;;;;;;;;13.33;13.33;;;;;42.79;25.70;99869.38;5019325;28;45585;-87
2022/08/13 09:05:34;;;;;;;;;11.67;11.33;;;;;42.74;26.05;99899.28;5022932;28;45529;-88
2022/08/13 09:08:02;;;;;;;;;14.00;13.00;;;;;41.51;26.55;99894.81;5019635;28;45479;-87
2022/08/13 09:10:32;;;;;;;;;16.00;14.00;;;;;41.24;27.49;99823.91;5018045;28;45405;-88
2022/08/13 09:13:00;;;;;;;;;12.67;11.67;;;;;41.56;27.27;99896.19;5018769;28;45536;-85
2022/08/13 09:15:26;;;;;;;;;10.67;10.67;;;;;40.86;27.84;99898.28;5020607;28;45493;-87
2022/08/13 09:17:53;;;;;;;;;11.33;11.33;;;;;41.61;27.04;99902.91;5018104;28;45538;-87
2022/08/13 09:20:22;;;;;;;;;12.00;12.00;;;;;42.09;26.84;99911.31;5017360;28;45384;-87
2022/08/13 09:23:01;;;;;;;;;14.00;14.00;;;;;41.17;27.00;99826.44;5017556;28;45327;-86
2022/08/13 09:25:27;;;;;;;;;12.67;12.67;;;;;41.49;27.59;99915.22;5017906;28;45489;-86
2022/08/13 09:27:53;;;;;;;;;14.00;14.00;;;;;41.12;28.19;99919.22;5017088;28;45972;-85
2022/08/13 09:30:19;;;;;;;;;12.67;12.33;;;;;40.93;27.61;99907.53;5018456;28;45527;-89
2022/08/13 09:32:46;;;;;;;;;15.00;14.00;;;;;40.90;28.02;99871.41;5017964;28;45202;-84
2022/08/13 09:35:12;;;;;;;;;14.67;14.33;;;;;41.71;27.22;99900.84;5019572;28;45421;-85
2022/08/13 09:37:39;;;;;;;;;13.00;12.33;;;;;41.98;25.90;99881.44;5019908;28;46103;-84
2022/08/13 09:40:11;;;;;;;;;12.67;12.33;;;;;42.49;26.57;99896.63;5018826;28;45259;-85
2022/08/13 09:42:57;;;;;;;;;13.67;13.67;;;;;42.41;24.87;99869.19;5020053;28;45359;-86
2022/08/13 09:45:25;;;;;;;;;12.00;11.00;;;;;42.25;26.58;99856.38;5018664;28;45240;-85
2022/08/13 09:47:52;;;;;;;;;12.33;11.67;;;;;42.96;25.29;99903.16;5034140;28;46543;-86
2022/08/13 09:50:21;;;;;;;;;10.67;10.33;;;;;43.14;24.05;99902.00;5018735;28;45446;-86
2022/08/13 09:52:47;;;;;;;;;12.00;12.00;;;;;43.07;24.91;99866.16;5017104;28;45190;-86
2022/08/13 09:55:13;;;;;;;;;14.33;12.33;;;;;43.16;24.83;99887.06;5018538;28;45437;-86
2022/08/13 09:58:10;;;;;;;;;17.00;17.00;;;;;42.51;25.09;99823.19;5018849;28;45344;-87
2022/08/13 10:00:36;;;;;;;;;12.00;11.67;;;;;43.20;24.48;99847.19;5008902;28;45533;-87
2022/08/13 10:03:06;;;;;;;;;13.67;12.67;;;;;43.19;24.74;99892.19;5017966;28;45535;-81
2022/08/13 10:05:34;;;;;;;;;16.33;15.00;;;;;43.14;25.01;99885.50;5016281;28;45450;-85
2022/08/13 10:08:13;;;;;;;;;12.00;12.00;;;;;42.69;24.84;99885.22;5015402;28;46479;-84
2022/08/13 10:10:38;;;;;;;;;12.00;11.00;;;;;42.80;25.09;99868.34;5016335;28;45422;-86
2022/08/13 10:13:04;;;;;;;;;13.00;13.00;;;;;43.20;25.05;99880.16;5016042;28;45254;-82
2022/08/13 10:15:30;;;;;;;;;12.67;12.33;;;;;43.36;24.20;99862.72;5016498;28;45457;-85
2022/08/13 10:18:02;;;;;;;;;13.67;13.00;;;;;43.44;24.64;99859.06;5017709;28;45327;-86
2022/08/13 10:20:36;;;;;;;;;15.33;14.33;;;;;43.44;24.88;99832.41;5018385;28;45619;-85
2022/08/13 10:23:10;;;;;;;;;12.33;12.00;;;;;43.72;24.41;99853.00;5029318;28;45798;-86
2022/08/13 10:25:37;;;;;;;;;13.67;13.67;;;;;43.53;24.70;99857.06;5027780;28;45509;-85
2022/08/13 10:28:27;;;;;;;;;12.33;11.33;;;;;43.77;23.87;99858.78;5021923;28;46712;-82
2022/08/13 10:30:54;;;;;;;;;12.67;12.33;;;;;43.93;23.62;99885.25;5019178;28;45422;-81
2022/08/13 10:33:21;;;;;;;;;12.00;12.00;;;;;42.93;23.92;99832.06;5034106;28;45285;-86
2022/08/13 10:35:55;;;;;;;;;11.00;11.00;;;;;42.63;24.64;99855.75;5033047;28;45497;-82
2022/08/13 10:38:26;;;;;;;;;14.67;13.67;;;;;42.58;24.92;99867.28;5031419;28;46082;-83
2022/08/13 10:41:07;;;;;;;;;12.33;12.00;;;;;42.32;25.17;99840.91;5029587;28;45423;-87
2022/08/13 10:43:39;;;;;;;;;13.67;13.67;;;;;42.44;25.91;99882.59;5032438;28;45500;-80
2022/08/13 10:46:11;;;;;;;;;14.00;13.67;;;;;42.24;25.31;99873.00;5035310;28;45873;-86
2022/08/13 10:48:40;;;;;;;;;16.33;15.67;;;;;41.67;26.33;99860.25;5025519;28;45508;-87
2022/08/13 10:51:06;;;;;;;;;13.00;13.00;;;;;41.89;26.46;99866.91;5028412;28;45448;-81
2022/08/13 10:56:17;;;;;;;;;15.67;15.67;;;;;42.10;25.37;99852.63;5036603;28;45380;-84
2022/08/13 10:58:43;;;;;;;;;12.00;11.67;;;;;41.99;26.50;99850.25;5024843;28;46193;-87
2022/08/13 11:01:10;;;;;;;;;12.67;11.00;;;;;42.21;26.29;99840.44;5017851;28;45539;-84
2022/08/13 11:03:37;;;;;;;;;12.00;10.67;;;;;41.62;26.01;99846.19;5019824;28;45515;-83
2022/08/13 11:06:05;;;;;;;;;15.67;14.67;;;;;40.23;27.12;99783.69;5030446;28;45566;-86
2022/08/13 11:08:34;;;;;;;;;14.00;13.33;;;;;39.82;27.24;99761.59;5060774;28;46921;-86
2022/08/13 11:11:00;;;;;;;;;12.00;12.00;;;;;40.13;28.27;99847.63;5032203;28;45456;-81
2022/08/13 11:13:26;;;;;;;;;13.67;13.33;;;;;39.66;28.09;99806.94;5018602;28;45595;-86
2022/08/13 11:15:51;;;;;;;;;13.33;13.00;;;;;39.57;28.42;99818.81;5026604;28;45548;-87
2022/08/13 11:18:18;;;;;;;;;13.33;13.33;;;;;38.94;29.45;99822.50;5027170;28;45571;-86
2022/08/13 11:21:02;;;;;;;;;15.00;14.67;;;;;38.95;29.80;99818.75;5018973;28;45461;-82
2022/08/13 11:23:31;;;;;;;;;13.33;13.33;;;;;38.11;30.82;99820.63;5033752;28;45420;-87
2022/08/13 11:25:56;;;;;;;;;14.00;14.00;;;;;37.98;31.29;99817.31;5021708;28;45419;-84
2022/08/13 11:28:23;;;;;;;;;14.67;14.00;;;;;37.67;31.05;99806.66;5033391;28;45742;-82
2022/08/13 11:30:49;;;;;;;;;14.33;13.00;;;;;37.36;31.02;99804.09;5025360;28;45434;-82
2022/08/13 11:33:16;;;;;;;;;10.67;10.67;;;;;37.17;31.59;99815.03;5034203;28;45274;-83
2022/08/13 11:35:42;;;;;;;;;13.00;13.00;;;;;36.93;32.07;99786.31;5021013;28;45402;-85
2022/08/13 11:38:09;;;;;;;;;15.00;15.00;;;;;36.78;32.99;99815.78;5025615;28;45485;-86
2022/08/13 11:40:36;;;;;;;;;14.33;13.67;;;;;36.62;33.08;99804.56;5030228;28;45608;-84
2022/08/13 11:43:01;;;;;;;;;16.00;14.33;;;;;36.35;33.30;99808.81;5019379;28;45301;-85
2022/08/13 11:45:27;;;;;;;;;14.00;13.67;;;;;36.41;33.87;99791.03;5018461;28;45473;-84